Etusivu
METAR-TAF:

METAR-TAF

Lentoasemat :

Gallup, New Mexico, Yhdysvallat

Leveyspiiri: 35-30-40N, Pituuspiiri: 108-47-22W, korkeus merenpinnasta: 1973 m

Tämänhetkinen sää

Tämä raportti tehtiin 39 minuuttia sitten, kello 20.53 UTC
Tuuli 10 kn lännestä/luoteesta puuskistuen 16 kn:hen, vaihdellen lännen ja pohjoisen/luoteen välillä
Lämpötila 19°C
Kosteus 16%
Ilmanpaine 1020 hPa
Näkyvyys: 16.1 km
selkeää

METAR: KGUP 162053Z AUTO 30010G16KT 260V330 10SM CLR 19/M07 A3013 RMK AO2 SLP130 T01891072 56027

Aika: 14:32 (21:32 UTC)

Sääennuste

Tämä raportti tehtiin 3 tuntia ja 56 minuuttia sitten, kello 17.36 UTC
Ennuste voimassa 16. päivästä klo 18 UTC - 17. päivään klo 18 UTC
Tuuli 9 kn lännestä/luoteesta
Näkyvyys: 10 km
Hajonneita pilviä 20000 ft:n korkeudessa
From 17. päivästä klo 0200 UTC
Tuuli 3 kn eri suunnista
Näkyvyys: 10 km
Muutamia pilviä 20000 ft:n korkeudessa

TAF: KGUP 161736Z 1618/1718 29009KT P6SM BKN200 FM170200 VRB03KT P6SM FEW200

Säähavainnot ja -ennusteet yli 4000 lentoasemalta (METAR- ja TAF-raportit).

Käytössä olevat sääasemat on merkitty karttaan keltaisilla ja punaisilla pisteillä.

Aseta hiiri pisteen päälle nähdäksesi sääaseman nimen.

Klikkaa sitten nähdäksesi säähavainnot ja -ennusteet.

Kartan vaihtaminen: klikkaa mustalla rastilla varustettuja vihreitä pisteitä, niin voit zoomata sisään; viivalla varustettua vihreää pistettä, niin voit zoomata ulos tai vihreitä nuolia, niin pääset viereisille kartoille.


METAR-TAF: